sensor_id;sensor_type;location;lat;lon;timestamp;P1;durP1;ratioP1;P2;durP2;ratioP2
23590;SDS011;11973;52.098;7.582;2023-07-13T04:16:53;4.10;;;2.90;;
23590;SDS011;11973;52.098;7.582;2023-07-13T04:19:19;3.65;;;2.67;;
23590;SDS011;11973;52.098;7.582;2023-07-13T04:21:45;2.70;;;2.50;;
23590;SDS011;11973;52.098;7.582;2023-07-13T04:24:11;4.95;;;2.80;;
23590;SDS011;11973;52.098;7.582;2023-07-13T04:26:38;2.97;;;2.33;;
23590;SDS011;11973;52.098;7.582;2023-07-13T04:29:05;7.80;;;2.53;;
23590;SDS011;11973;52.098;7.582;2023-07-13T04:31:32;4.35;;;2.60;;
23590;SDS011;11973;52.098;7.582;2023-07-13T04:33:58;3.55;;;2.30;;
23590;SDS011;11973;52.098;7.582;2023-07-13T04:36:24;6.75;;;2.17;;
23590;SDS011;11973;52.098;7.582;2023-07-13T04:38:52;5.07;;;1.92;;
23590;SDS011;11973;52.098;7.582;2023-07-13T04:41:19;2.75;;;2.05;;
23590;SDS011;11973;52.098;7.582;2023-07-13T04:43:45;4.25;;;2.10;;
23590;SDS011;11973;52.098;7.582;2023-07-13T04:46:11;10.80;;;2.55;;
23590;SDS011;11973;52.098;7.582;2023-07-13T04:48:39;4.30;;;2.22;;
23590;SDS011;11973;52.098;7.582;2023-07-13T04:51:05;3.42;;;2.08;;
23590;SDS011;11973;52.098;7.582;2023-07-13T04:53:32;3.28;;;1.95;;
23590;SDS011;11973;52.098;7.582;2023-07-13T04:55:59;2.83;;;2.42;;
23590;SDS011;11973;52.098;7.582;2023-07-13T04:58:25;3.78;;;2.15;;
23590;SDS011;11973;52.098;7.582;2023-07-13T05:00:52;4.90;;;2.42;;
23590;SDS011;11973;52.098;7.582;2023-07-13T05:03:24;5.65;;;2.00;;
23590;SDS011;11973;52.098;7.582;2023-07-13T05:05:56;5.18;;;2.17;;
23590;SDS011;11973;52.098;7.582;2023-07-13T05:08:23;3.85;;;1.70;;
23590;SDS011;11973;52.098;7.582;2023-07-13T05:10:50;3.30;;;1.77;;
23590;SDS011;11973;52.098;7.582;2023-07-13T05:13:16;5.25;;;2.20;;
23590;SDS011;11973;52.098;7.582;2023-07-13T05:15:41;3.13;;;2.20;;
23590;SDS011;11973;52.098;7.582;2023-07-13T05:18:07;4.15;;;2.05;;
23590;SDS011;11973;52.098;7.582;2023-07-13T05:20:33;3.42;;;1.80;;
23590;SDS011;11973;52.098;7.582;2023-07-13T05:22:58;3.80;;;1.90;;
23590;SDS011;11973;52.098;7.582;2023-07-13T05:25:24;3.00;;;2.33;;
23590;SDS011;11973;52.098;7.582;2023-07-13T05:27:50;4.32;;;2.35;;
23590;SDS011;11973;52.098;7.582;2023-07-13T05:30:16;5.55;;;2.20;;
23590;SDS011;11973;52.098;7.582;2023-07-13T05:32:42;7.45;;;2.38;;
23590;SDS011;11973;52.098;7.582;2023-07-13T05:35:08;3.28;;;2.47;;
23590;SDS011;11973;52.098;7.582;2023-07-13T05:37:34;3.80;;;2.58;;
23590;SDS011;11973;52.098;7.582;2023-07-13T05:39:59;4.32;;;2.03;;
23590;SDS011;11973;52.098;7.582;2023-07-13T05:42:25;4.38;;;2.30;;
23590;SDS011;11973;52.098;7.582;2023-07-13T05:44:51;6.18;;;2.63;;
23590;SDS011;11973;52.098;7.582;2023-07-13T05:47:17;5.07;;;2.40;;
23590;SDS011;11973;52.098;7.582;2023-07-13T05:49:43;3.63;;;2.65;;
23590;SDS011;11973;52.098;7.582;2023-07-13T05:52:08;4.30;;;2.47;;
23590;SDS011;11973;52.098;7.582;2023-07-13T05:54:34;5.28;;;2.90;;
23590;SDS011;11973;52.098;7.582;2023-07-13T05:57:00;4.22;;;2.58;;
23590;SDS011;11973;52.098;7.582;2023-07-13T05:59:26;4.95;;;2.35;;
23590;SDS011;11973;52.098;7.582;2023-07-13T06:01:51;5.22;;;2.50;;
23590;SDS011;11973;52.098;7.582;2023-07-13T06:04:17;7.00;;;2.50;;
23590;SDS011;11973;52.098;7.582;2023-07-13T06:06:44;5.00;;;2.63;;
23590;SDS011;11973;52.098;7.582;2023-07-13T06:09:10;6.75;;;2.92;;
23590;SDS011;11973;52.098;7.582;2023-07-13T06:11:36;5.70;;;2.70;;
23590;SDS011;11973;52.098;7.582;2023-07-13T06:14:01;5.88;;;2.90;;
23590;SDS011;11973;52.098;7.582;2023-07-13T06:16:29;5.47;;;2.78;;
23590;SDS011;11973;52.098;7.582;2023-07-13T06:18:55;6.68;;;2.80;;
23590;SDS011;11973;52.098;7.582;2023-07-13T06:21:21;4.25;;;2.75;;
23590;SDS011;11973;52.098;7.582;2023-07-13T06:23:49;8.65;;;3.17;;
23590;SDS011;11973;52.098;7.582;2023-07-13T06:26:16;3.40;;;2.88;;
23590;SDS011;11973;52.098;7.582;2023-07-13T06:28:44;5.13;;;3.03;;
23590;SDS011;11973;52.098;7.582;2023-07-13T06:31:10;6.45;;;2.75;;
23590;SDS011;11973;52.098;7.582;2023-07-13T06:33:37;8.48;;;3.25;;
23590;SDS011;11973;52.098;7.582;2023-07-13T06:36:04;6.68;;;2.97;;
23590;SDS011;11973;52.098;7.582;2023-07-13T06:38:31;6.05;;;3.15;;
23590;SDS011;11973;52.098;7.582;2023-07-13T06:40:57;7.38;;;3.00;;
23590;SDS011;11973;52.098;7.582;2023-07-13T06:43:23;6.13;;;2.90;;
23590;SDS011;11973;52.098;7.582;2023-07-13T06:45:50;6.38;;;3.03;;
23590;SDS011;11973;52.098;7.582;2023-07-13T06:48:17;4.18;;;2.72;;
23590;SDS011;11973;52.098;7.582;2023-07-13T06:50:45;5.57;;;2.90;;
23590;SDS011;11973;52.098;7.582;2023-07-13T06:53:11;3.05;;;2.15;;
23590;SDS011;11973;52.098;7.582;2023-07-13T06:55:38;3.05;;;2.85;;
23590;SDS011;11973;52.098;7.582;2023-07-13T06:58:04;7.15;;;3.08;;
23590;SDS011;11973;52.098;7.582;2023-07-13T07:00:31;2.33;;;2.15;;
23590;SDS011;11973;52.098;7.582;2023-07-13T07:02:56;4.07;;;2.30;;
23590;SDS011;11973;52.098;7.582;2023-07-13T07:05:24;5.03;;;2.90;;
23590;SDS011;11973;52.098;7.582;2023-07-13T07:07:51;5.60;;;2.95;;
23590;SDS011;11973;52.098;7.582;2023-07-13T07:10:18;3.42;;;3.00;;
23590;SDS011;11973;52.098;7.582;2023-07-13T07:12:44;6.03;;;3.10;;
23590;SDS011;11973;52.098;7.582;2023-07-13T07:15:10;4.10;;;2.72;;
23590;SDS011;11973;52.098;7.582;2023-07-13T07:17:36;5.22;;;2.80;;
23590;SDS011;11973;52.098;7.582;2023-07-13T07:20:02;3.83;;;2.80;;
23590;SDS011;11973;52.098;7.582;2023-07-13T07:22:29;3.88;;;2.85;;
23590;SDS011;11973;52.098;7.582;2023-07-13T07:24:56;4.78;;;3.28;;
23590;SDS011;11973;52.098;7.582;2023-07-13T07:27:24;3.60;;;3.30;;
23590;SDS011;11973;52.098;7.582;2023-07-13T07:29:51;5.32;;;3.10;;
23590;SDS011;11973;52.098;7.582;2023-07-13T07:32:23;4.93;;;3.08;;
23590;SDS011;11973;52.098;7.582;2023-07-13T07:34:52;3.25;;;2.90;;
23590;SDS011;11973;52.098;7.582;2023-07-13T07:37:17;3.35;;;2.95;;
23590;SDS011;11973;52.098;7.582;2023-07-13T07:39:43;7.25;;;3.40;;
23590;SDS011;11973;52.098;7.582;2023-07-13T07:42:10;3.20;;;3.00;;
23590;SDS011;11973;52.098;7.582;2023-07-13T07:44:37;3.60;;;3.10;;
23590;SDS011;11973;52.098;7.582;2023-07-13T07:47:05;7.75;;;3.10;;
23590;SDS011;11973;52.098;7.582;2023-07-13T07:49:32;7.93;;;3.70;;
23590;SDS011;11973;52.098;7.582;2023-07-13T07:51:58;7.22;;;3.65;;
23590;SDS011;11973;52.098;7.582;2023-07-13T07:54:24;4.28;;;3.55;;
23590;SDS011;11973;52.098;7.582;2023-07-13T07:56:49;3.47;;;3.10;;
23590;SDS011;11973;52.098;7.582;2023-07-13T07:59:15;4.85;;;3.60;;
23590;SDS011;11973;52.098;7.582;2023-07-13T08:01:41;5.88;;;3.63;;
23590;SDS011;11973;52.098;7.582;2023-07-13T08:04:08;3.25;;;2.97;;
23590;SDS011;11973;52.098;7.582;2023-07-13T08:06:34;4.20;;;3.67;;
23590;SDS011;11973;52.098;7.582;2023-07-13T08:09:00;5.63;;;4.22;;
23590;SDS011;11973;52.098;7.582;2023-07-13T08:11:27;4.45;;;3.67;;
23590;SDS011;11973;52.098;7.582;2023-07-13T08:13:53;9.52;;;3.95;;
23590;SDS011;11973;52.098;7.582;2023-07-13T08:16:22;6.63;;;4.13;;
23590;SDS011;11973;52.098;7.582;2023-07-13T08:18:52;4.35;;;3.72;;
23590;SDS011;11973;52.098;7.582;2023-07-13T08:21:21;6.57;;;3.67;;
23590;SDS011;11973;52.098;7.582;2023-07-13T08:23:47;5.20;;;4.10;;
23590;SDS011;11973;52.098;7.582;2023-07-13T08:26:13;4.47;;;4.07;;
23590;SDS011;11973;52.098;7.582;2023-07-13T08:28:40;8.45;;;4.40;;
23590;SDS011;11973;52.098;7.582;2023-07-13T08:31:12;4.85;;;4.20;;
23590;SDS011;11973;52.098;7.582;2023-07-13T08:33:40;6.72;;;4.53;;
23590;SDS011;11973;52.098;7.582;2023-07-13T08:36:08;5.68;;;3.83;;
23590;SDS011;11973;52.098;7.582;2023-07-13T08:38:34;5.50;;;4.13;;
23590;SDS011;11973;52.098;7.582;2023-07-13T08:41:00;5.50;;;5.07;;
23590;SDS011;11973;52.098;7.582;2023-07-13T08:43:44;5.35;;;4.93;;
23590;SDS011;11973;52.098;7.582;2023-07-13T08:49:31;11.07;;;4.88;;
23590;SDS011;11973;52.098;7.582;2023-07-13T08:54:20;8.85;;;5.65;;
23590;SDS011;11973;52.098;7.582;2023-07-13T08:56:51;6.25;;;5.20;;
23590;SDS011;11973;52.098;7.582;2023-07-13T08:59:19;7.88;;;4.60;;
23590;SDS011;11973;52.098;7.582;2023-07-13T09:04:32;5.63;;;4.70;;
23590;SDS011;11973;52.098;7.582;2023-07-13T09:12:39;5.25;;;4.75;;
23590;SDS011;11973;52.098;7.582;2023-07-13T09:15:31;5.25;;;4.65;;
23590;SDS011;11973;52.098;7.582;2023-07-13T09:18:10;5.82;;;4.05;;
23590;SDS011;11973;52.098;7.582;2023-07-13T09:23:37;4.80;;;4.40;;
23590;SDS011;11973;52.098;7.582;2023-07-13T09:28:47;7.88;;;3.83;;
23590;SDS011;11973;52.098;7.582;2023-07-13T09:31:17;4.45;;;3.70;;
23590;SDS011;11973;52.098;7.582;2023-07-13T09:34:04;6.72;;;4.40;;
23590;SDS011;11973;52.098;7.582;2023-07-13T09:36:37;4.45;;;3.58;;
23590;SDS011;11973;52.098;7.582;2023-07-13T09:42:01;2.90;;;2.70;;
23590;SDS011;11973;52.098;7.582;2023-07-13T09:44:30;4.57;;;3.80;;
23590;SDS011;11973;52.098;7.582;2023-07-13T09:46:59;3.63;;;3.33;;
23590;SDS011;11973;52.098;7.582;2023-07-13T09:49:33;7.57;;;3.83;;
23590;SDS011;11973;52.098;7.582;2023-07-13T09:52:10;3.97;;;3.22;;
23590;SDS011;11973;52.098;7.582;2023-07-13T09:54:43;3.70;;;3.40;;
23590;SDS011;11973;52.098;7.582;2023-07-13T09:57:14;3.88;;;3.53;;
23590;SDS011;11973;52.098;7.582;2023-07-13T09:59:47;7.22;;;3.38;;
23590;SDS011;11973;52.098;7.582;2023-07-13T10:02:23;7.55;;;4.32;;
23590;SDS011;11973;52.098;7.582;2023-07-13T10:07:29;3.72;;;3.42;;
23590;SDS011;11973;52.098;7.582;2023-07-13T10:09:56;5.95;;;3.55;;
23590;SDS011;11973;52.098;7.582;2023-07-13T10:12:23;6.65;;;4.00;;
23590;SDS011;11973;52.098;7.582;2023-07-13T10:14:51;3.03;;;2.78;;
23590;SDS011;11973;52.098;7.582;2023-07-13T10:17:30;5.35;;;4.00;;
23590;SDS011;11973;52.098;7.582;2023-07-13T10:19:58;4.38;;;3.80;;
23590;SDS011;11973;52.098;7.582;2023-07-13T10:25:13;5.47;;;3.75;;
23590;SDS011;11973;52.098;7.582;2023-07-13T10:27:51;4.05;;;3.75;;
23590;SDS011;11973;52.098;7.582;2023-07-13T10:30:21;7.80;;;3.67;;
23590;SDS011;11973;52.098;7.582;2023-07-13T10:32:57;5.65;;;3.78;;
23590;SDS011;11973;52.098;7.582;2023-07-13T10:35:25;4.53;;;3.58;;
23590;SDS011;11973;52.098;7.582;2023-07-13T10:37:56;6.00;;;4.03;;
23590;SDS011;11973;52.098;7.582;2023-07-13T10:40:35;6.55;;;3.78;;
23590;SDS011;11973;52.098;7.582;2023-07-13T10:43:13;3.72;;;3.42;;
23590;SDS011;11973;52.098;7.582;2023-07-13T10:45:52;4.25;;;3.50;;
23590;SDS011;11973;52.098;7.582;2023-07-13T10:48:19;6.43;;;3.95;;
23590;SDS011;11973;52.098;7.582;2023-07-13T10:50:49;8.70;;;3.53;;
23590;SDS011;11973;52.098;7.582;2023-07-13T10:53:35;2.97;;;2.78;;
23590;SDS011;11973;52.098;7.582;2023-07-13T10:59:01;2.88;;;2.63;;
23590;SDS011;11973;52.098;7.582;2023-07-13T11:01:46;3.63;;;2.53;;
23590;SDS011;11973;52.098;7.582;2023-07-13T11:04:41;3.28;;;2.28;;
23590;SDS011;11973;52.098;7.582;2023-07-13T11:07:17;3.72;;;2.80;;
23590;SDS011;11973;52.098;7.582;2023-07-13T11:09:50;3.53;;;2.80;;
23590;SDS011;11973;52.098;7.582;2023-07-13T11:12:49;3.15;;;2.13;;
23590;SDS011;11973;52.098;7.582;2023-07-13T11:15:32;5.88;;;2.72;;
23590;SDS011;11973;52.098;7.582;2023-07-13T11:18:19;2.28;;;2.10;;
23590;SDS011;11973;52.098;7.582;2023-07-13T11:20:46;2.30;;;2.10;;
23590;SDS011;11973;52.098;7.582;2023-07-13T11:25:43;4.30;;;1.95;;
23590;SDS011;11973;52.098;7.582;2023-07-13T11:31:17;1.80;;;1.70;;
23590;SDS011;11973;52.098;7.582;2023-07-13T11:36:04;2.17;;;2.08;;
23590;SDS011;11973;52.098;7.582;2023-07-13T11:38:36;1.90;;;1.80;;
23590;SDS011;11973;52.098;7.582;2023-07-13T11:41:12;2.75;;;1.85;;
23590;SDS011;11973;52.098;7.582;2023-07-13T11:43:45;2.05;;;1.92;;
23590;SDS011;11973;52.098;7.582;2023-07-13T11:46:21;1.67;;;1.63;;
23590;SDS011;11973;52.098;7.582;2023-07-13T11:48:52;2.05;;;1.90;;
23590;SDS011;11973;52.098;7.582;2023-07-13T11:51:23;2.53;;;1.73;;
23590;SDS011;11973;52.098;7.582;2023-07-13T11:54:03;1.65;;;1.55;;
23590;SDS011;11973;52.098;7.582;2023-07-13T11:56:30;2.55;;;2.13;;
23590;SDS011;11973;52.098;7.582;2023-07-13T11:59:02;3.35;;;2.08;;
23590;SDS011;11973;52.098;7.582;2023-07-13T12:01:31;2.40;;;2.20;;
23590;SDS011;11973;52.098;7.582;2023-07-13T12:03:59;2.13;;;2.08;;
23590;SDS011;11973;52.098;7.582;2023-07-13T12:06:29;2.65;;;2.00;;
23590;SDS011;11973;52.098;7.582;2023-07-13T12:08:57;1.98;;;1.83;;
23590;SDS011;11973;52.098;7.582;2023-07-13T12:11:30;3.10;;;2.00;;
23590;SDS011;11973;52.098;7.582;2023-07-13T12:14:03;1.83;;;1.83;;
23590;SDS011;11973;52.098;7.582;2023-07-13T12:16:29;3.53;;;2.38;;
23590;SDS011;11973;52.098;7.582;2023-07-13T12:18:59;3.42;;;3.13;;
23590;SDS011;11973;52.098;7.582;2023-07-13T12:21:30;3.72;;;3.50;;
23590;SDS011;11973;52.098;7.582;2023-07-13T12:23:57;4.00;;;3.70;;
23590;SDS011;11973;52.098;7.582;2023-07-13T12:26:24;4.90;;;4.50;;
23590;SDS011;11973;52.098;7.582;2023-07-13T12:28:52;4.82;;;4.53;;
23590;SDS011;11973;52.098;7.582;2023-07-13T12:31:29;5.55;;;5.25;;
23590;SDS011;11973;52.098;7.582;2023-07-13T12:34:02;4.47;;;4.28;;
23590;SDS011;11973;52.098;7.582;2023-07-13T12:36:33;5.57;;;5.07;;
23590;SDS011;11973;52.098;7.582;2023-07-13T12:39:03;5.95;;;5.50;;
23590;SDS011;11973;52.098;7.582;2023-07-13T12:41:38;5.72;;;5.28;;
23590;SDS011;11973;52.098;7.582;2023-07-13T12:44:04;6.13;;;5.63;;
23590;SDS011;11973;52.098;7.582;2023-07-13T12:46:34;6.03;;;5.45;;
23590;SDS011;11973;52.098;7.582;2023-07-13T12:49:00;5.80;;;4.97;;
23590;SDS011;11973;52.098;7.582;2023-07-13T12:51:32;5.05;;;4.65;;
23590;SDS011;11973;52.098;7.582;2023-07-13T12:54:05;4.65;;;4.35;;
23590;SDS011;11973;52.098;7.582;2023-07-13T12:56:38;5.07;;;4.60;;
23590;SDS011;11973;52.098;7.582;2023-07-13T12:59:04;4.80;;;4.40;;
23590;SDS011;11973;52.098;7.582;2023-07-13T13:01:32;5.22;;;4.82;;
23590;SDS011;11973;52.098;7.582;2023-07-13T13:04:02;5.13;;;4.65;;
23590;SDS011;11973;52.098;7.582;2023-07-13T13:06:34;7.72;;;4.63;;
23590;SDS011;11973;52.098;7.582;2023-07-13T13:09:01;5.53;;;4.53;;
23590;SDS011;11973;52.098;7.582;2023-07-13T13:11:29;5.05;;;4.30;;
23590;SDS011;11973;52.098;7.582;2023-07-13T13:13:56;3.60;;;3.28;;
23590;SDS011;11973;52.098;7.582;2023-07-13T13:16:26;6.55;;;3.53;;
23590;SDS011;11973;52.098;7.582;2023-07-13T13:19:05;3.70;;;3.35;;
23590;SDS011;11973;52.098;7.582;2023-07-13T13:21:42;4.32;;;3.45;;
23590;SDS011;11973;52.098;7.582;2023-07-13T13:24:13;8.02;;;4.38;;
23590;SDS011;11973;52.098;7.582;2023-07-13T13:26:40;5.85;;;4.82;;
23590;SDS011;11973;52.098;7.582;2023-07-13T13:29:16;11.48;;;5.95;;
23590;SDS011;11973;52.098;7.582;2023-07-13T13:31:44;6.50;;;5.88;;
23590;SDS011;11973;52.098;7.582;2023-07-13T13:34:13;7.47;;;6.88;;
23590;SDS011;11973;52.098;7.582;2023-07-13T13:36:48;6.63;;;6.13;;
23590;SDS011;11973;52.098;7.582;2023-07-13T13:42:02;6.55;;;6.05;;
23590;SDS011;11973;52.098;7.582;2023-07-13T13:44:54;6.50;;;6.10;;
23590;SDS011;11973;52.098;7.582;2023-07-13T13:47:44;6.30;;;5.97;;
23590;SDS011;11973;52.098;7.582;2023-07-13T13:50:16;6.35;;;5.85;;
23590;SDS011;11973;52.098;7.582;2023-07-13T13:52:43;5.93;;;5.53;;
23590;SDS011;11973;52.098;7.582;2023-07-13T13:55:13;5.70;;;5.43;;
23590;SDS011;11973;52.098;7.582;2023-07-13T13:57:47;6.15;;;5.75;;
23590;SDS011;11973;52.098;7.582;2023-07-13T14:00:14;6.80;;;6.20;;
23590;SDS011;11973;52.098;7.582;2023-07-13T14:02:45;5.97;;;5.47;;
23590;SDS011;11973;52.098;7.582;2023-07-13T14:05:18;5.97;;;5.50;;
23590;SDS011;11973;52.098;7.582;2023-07-13T14:07:46;6.10;;;5.75;;
23590;SDS011;11973;52.098;7.582;2023-07-13T14:10:15;6.88;;;6.25;;
23590;SDS011;11973;52.098;7.582;2023-07-13T14:12:43;11.93;;;7.05;;
23590;SDS011;11973;52.098;7.582;2023-07-13T14:15:26;7.28;;;6.72;;
23590;SDS011;11973;52.098;7.582;2023-07-13T14:17:54;13.57;;;7.88;;
23590;SDS011;11973;52.098;7.582;2023-07-13T14:20:21;8.77;;;7.90;;
23590;SDS011;11973;52.098;7.582;2023-07-13T14:22:49;8.77;;;8.07;;
23590;SDS011;11973;52.098;7.582;2023-07-13T14:25:16;12.23;;;8.65;;
23590;SDS011;11973;52.098;7.582;2023-07-13T14:27:43;8.77;;;8.18;;
23590;SDS011;11973;52.098;7.582;2023-07-13T14:30:19;9.07;;;8.30;;
23590;SDS011;11973;52.098;7.582;2023-07-13T14:32:47;9.27;;;8.50;;
23590;SDS011;11973;52.098;7.582;2023-07-13T14:35:15;9.15;;;8.38;;
23590;SDS011;11973;52.098;7.582;2023-07-13T14:37:42;9.15;;;8.55;;
23590;SDS011;11973;52.098;7.582;2023-07-13T14:40:13;8.05;;;7.47;;
23590;SDS011;11973;52.098;7.582;2023-07-13T14:42:40;8.48;;;7.85;;
23590;SDS011;11973;52.098;7.582;2023-07-13T14:45:12;7.07;;;6.70;;
23590;SDS011;11973;52.098;7.582;2023-07-13T14:47:41;6.60;;;6.00;;
23590;SDS011;11973;52.098;7.582;2023-07-13T14:50:15;6.22;;;5.80;;
23590;SDS011;11973;52.098;7.582;2023-07-13T14:52:46;5.72;;;5.50;;
23590;SDS011;11973;52.098;7.582;2023-07-13T14:55:14;5.15;;;4.85;;
23590;SDS011;11973;52.098;7.582;2023-07-13T14:57:42;4.47;;;4.28;;
23590;SDS011;11973;52.098;7.582;2023-07-13T15:02:41;3.85;;;3.75;;
23590;SDS011;11973;52.098;7.582;2023-07-13T15:05:16;4.25;;;4.05;;
23590;SDS011;11973;52.098;7.582;2023-07-13T15:07:44;4.13;;;3.90;;
23590;SDS011;11973;52.098;7.582;2023-07-13T15:10:17;3.83;;;3.45;;
23590;SDS011;11973;52.098;7.582;2023-07-13T15:12:44;3.08;;;3.08;;
23590;SDS011;11973;52.098;7.582;2023-07-13T15:15:11;3.45;;;3.25;;
23590;SDS011;11973;52.098;7.582;2023-07-13T15:17:40;3.25;;;2.92;;
23590;SDS011;11973;52.098;7.582;2023-07-13T15:22:54;2.40;;;2.40;;
23590;SDS011;11973;52.098;7.582;2023-07-13T15:25:21;2.20;;;2.20;;
23590;SDS011;11973;52.098;7.582;2023-07-13T15:27:50;1.10;;;1.10;;
23590;SDS011;11973;52.098;7.582;2023-07-13T15:30:16;1.50;;;1.20;;
23590;SDS011;11973;52.098;7.582;2023-07-13T15:32:43;1.65;;;1.55;;
23590;SDS011;11973;52.098;7.582;2023-07-13T15:35:17;1.40;;;1.40;;
23590;SDS011;11973;52.098;7.582;2023-07-13T15:37:47;1.60;;;1.60;;
23590;SDS011;11973;52.098;7.582;2023-07-13T15:40:14;1.92;;;1.75;;
23590;SDS011;11973;52.098;7.582;2023-07-13T15:42:40;2.05;;;1.95;;
23590;SDS011;11973;52.098;7.582;2023-07-13T15:45:14;2.20;;;2.13;;
23590;SDS011;11973;52.098;7.582;2023-07-13T15:47:42;2.15;;;2.05;;
23590;SDS011;11973;52.098;7.582;2023-07-13T15:50:13;1.50;;;1.50;;
23590;SDS011;11973;52.098;7.582;2023-07-13T15:52:40;1.63;;;1.58;;
23590;SDS011;11973;52.098;7.582;2023-07-13T15:55:11;4.22;;;1.70;;
23590;SDS011;11973;52.098;7.582;2023-07-13T15:57:39;1.60;;;1.60;;
23590;SDS011;11973;52.098;7.582;2023-07-13T16:00:16;2.58;;;1.48;;
23590;SDS011;11973;52.098;7.582;2023-07-13T16:02:47;0.85;;;0.85;;
23590;SDS011;11973;52.098;7.582;2023-07-13T16:05:14;1.40;;;0.90;;
23590;SDS011;11973;52.098;7.582;2023-07-13T16:07:42;1.00;;;1.00;;
23590;SDS011;11973;52.098;7.582;2023-07-13T16:10:15;0.80;;;0.80;;
23590;SDS011;11973;52.098;7.582;2023-07-13T16:12:42;2.05;;;0.90;;
23590;SDS011;11973;52.098;7.582;2023-07-13T16:15:13;0.70;;;0.70;;
23590;SDS011;11973;52.098;7.582;2023-07-13T16:17:42;1.17;;;0.90;;
23590;SDS011;11973;52.098;7.582;2023-07-13T16:20:08;3.50;;;0.90;;
23590;SDS011;11973;52.098;7.582;2023-07-13T16:22:38;0.95;;;0.95;;
23590;SDS011;11973;52.098;7.582;2023-07-13T16:25:22;0.80;;;0.80;;
23590;SDS011;11973;52.098;7.582;2023-07-13T16:27:50;0.80;;;0.80;;
23590;SDS011;11973;52.098;7.582;2023-07-13T16:30:21;1.00;;;1.00;;
23590;SDS011;11973;52.098;7.582;2023-07-13T16:32:52;2.00;;;1.15;;
23590;SDS011;11973;52.098;7.582;2023-07-13T16:35:22;1.00;;;1.00;;
23590;SDS011;11973;52.098;7.582;2023-07-13T16:37:50;1.48;;;1.00;;
23590;SDS011;11973;52.098;7.582;2023-07-13T16:40:25;1.50;;;1.15;;
23590;SDS011;11973;52.098;7.582;2023-07-13T16:42:54;1.20;;;1.20;;
23590;SDS011;11973;52.098;7.582;2023-07-13T16:45:28;1.20;;;1.08;;
23590;SDS011;11973;52.098;7.582;2023-07-13T16:47:59;3.80;;;1.48;;
23590;SDS011;11973;52.098;7.582;2023-07-13T16:50:29;1.02;;;1.02;;
23590;SDS011;11973;52.098;7.582;2023-07-13T16:52:56;1.52;;;1.42;;
23590;SDS011;11973;52.098;7.582;2023-07-13T16:55:23;1.63;;;1.58;;
23590;SDS011;11973;52.098;7.582;2023-07-13T16:57:58;1.58;;;1.58;;
23590;SDS011;11973;52.098;7.582;2023-07-13T17:00:28;1.90;;;1.80;;
23590;SDS011;11973;52.098;7.582;2023-07-13T17:02:56;1.58;;;1.58;;
23590;SDS011;11973;52.098;7.582;2023-07-13T17:05:27;1.45;;;1.45;;
23590;SDS011;11973;52.098;7.582;2023-07-13T17:07:54;1.77;;;1.77;;
23590;SDS011;11973;52.098;7.582;2023-07-13T17:10:21;2.65;;;2.20;;
23590;SDS011;11973;52.098;7.582;2023-07-13T17:12:49;2.25;;;2.25;;
23590;SDS011;11973;52.098;7.582;2023-07-13T17:15:15;2.60;;;2.50;;
23590;SDS011;11973;52.098;7.582;2023-07-13T17:17:41;3.55;;;3.35;;
23590;SDS011;11973;52.098;7.582;2023-07-13T17:22:47;2.97;;;2.88;;
23590;SDS011;11973;52.098;7.582;2023-07-13T17:25:16;3.63;;;3.30;;
23590;SDS011;11973;52.098;7.582;2023-07-13T17:27:42;4.50;;;4.30;;
23590;SDS011;11973;52.098;7.582;2023-07-13T17:30:29;3.38;;;3.28;;
23590;SDS011;11973;52.098;7.582;2023-07-13T17:32:54;3.55;;;3.45;;
23590;SDS011;11973;52.098;7.582;2023-07-13T17:35:24;3.60;;;3.38;;
23590;SDS011;11973;52.098;7.582;2023-07-13T17:37:52;3.90;;;3.80;;
23590;SDS011;11973;52.098;7.582;2023-07-13T17:40:23;3.47;;;3.38;;
23590;SDS011;11973;52.098;7.582;2023-07-13T17:42:50;3.58;;;3.47;;
23590;SDS011;11973;52.098;7.582;2023-07-13T17:45:26;3.92;;;3.80;;
23590;SDS011;11973;52.098;7.582;2023-07-13T17:47:54;3.83;;;3.70;;
23590;SDS011;11973;52.098;7.582;2023-07-13T17:50:33;3.80;;;3.50;;
23590;SDS011;11973;52.098;7.582;2023-07-13T17:55:32;4.30;;;4.20;;
23590;SDS011;11973;52.098;7.582;2023-07-13T17:57:59;4.07;;;3.88;;
23590;SDS011;11973;52.098;7.582;2023-07-13T18:00:29;3.80;;;3.47;;
23590;SDS011;11973;52.098;7.582;2023-07-13T18:03:02;3.92;;;3.83;;
23590;SDS011;11973;52.098;7.582;2023-07-13T18:05:31;4.07;;;3.97;;
23590;SDS011;11973;52.098;7.582;2023-07-13T18:07:57;3.63;;;3.63;;
23590;SDS011;11973;52.098;7.582;2023-07-13T18:10:23;4.43;;;4.22;;
23590;SDS011;11973;52.098;7.582;2023-07-13T18:12:52;3.72;;;3.63;;
23590;SDS011;11973;52.098;7.582;2023-07-13T18:15:20;4.22;;;4.03;;
23590;SDS011;11973;52.098;7.582;2023-07-13T18:17:49;4.28;;;4.18;;
23590;SDS011;11973;52.098;7.582;2023-07-13T18:20:16;3.97;;;3.80;;
23590;SDS011;11973;52.098;7.582;2023-07-13T18:22:45;3.72;;;3.60;;
23590;SDS011;11973;52.098;7.582;2023-07-13T18:25:14;3.80;;;3.80;;
23590;SDS011;11973;52.098;7.582;2023-07-13T18:27:45;4.22;;;4.15;;
23590;SDS011;11973;52.098;7.582;2023-07-13T18:30:15;3.83;;;3.72;;
23590;SDS011;11973;52.098;7.582;2023-07-13T18:32:44;3.63;;;3.53;;
23590;SDS011;11973;52.098;7.582;2023-07-13T18:35:15;3.72;;;3.63;;
23590;SDS011;11973;52.098;7.582;2023-07-13T18:37:53;4.10;;;4.00;;
23590;SDS011;11973;52.098;7.582;2023-07-13T18:40:20;3.95;;;3.65;;
23590;SDS011;11973;52.098;7.582;2023-07-13T18:42:49;5.53;;;4.13;;
23590;SDS011;11973;52.098;7.582;2023-07-13T18:45:16;4.40;;;4.18;;
23590;SDS011;11973;52.098;7.582;2023-07-13T18:47:43;4.20;;;4.10;;
23590;SDS011;11973;52.098;7.582;2023-07-13T18:50:15;3.97;;;3.88;;
23590;SDS011;11973;52.098;7.582;2023-07-13T18:52:44;3.92;;;3.72;;
23590;SDS011;11973;52.098;7.582;2023-07-13T18:55:17;4.40;;;4.20;;
23590;SDS011;11973;52.098;7.582;2023-07-13T18:57:44;4.38;;;4.22;;
23590;SDS011;11973;52.098;7.582;2023-07-13T19:00:12;4.35;;;4.15;;
23590;SDS011;11973;52.098;7.582;2023-07-13T19:02:38;4.85;;;4.53;;
23590;SDS011;11973;52.098;7.582;2023-07-13T19:05:12;4.18;;;3.97;;
23590;SDS011;11973;52.098;7.582;2023-07-13T19:07:40;4.55;;;4.25;;
23590;SDS011;11973;52.098;7.582;2023-07-13T19:10:12;4.35;;;4.25;;
23590;SDS011;11973;52.098;7.582;2023-07-13T19:12:39;4.18;;;4.18;;
23590;SDS011;11973;52.098;7.582;2023-07-13T19:15:17;4.65;;;4.45;;
23590;SDS011;11973;52.098;7.582;2023-07-13T19:17:48;4.60;;;4.50;;
23590;SDS011;11973;52.098;7.582;2023-07-13T19:20:16;4.45;;;4.35;;
23590;SDS011;11973;52.098;7.582;2023-07-13T19:22:55;4.50;;;4.40;;
23590;SDS011;11973;52.098;7.582;2023-07-13T19:25:26;4.82;;;4.53;;
23590;SDS011;11973;52.098;7.582;2023-07-13T19:27:56;4.70;;;4.60;;
23590;SDS011;11973;52.098;7.582;2023-07-13T19:30:28;4.45;;;4.38;;
23590;SDS011;11973;52.098;7.582;2023-07-13T19:32:54;4.32;;;4.20;;
23590;SDS011;11973;52.098;7.582;2023-07-13T19:35:24;4.80;;;4.70;;
23590;SDS011;11973;52.098;7.582;2023-07-13T19:37:51;4.82;;;4.63;;
23590;SDS011;11973;52.098;7.582;2023-07-13T19:40:18;5.28;;;5.13;;
23590;SDS011;11973;52.098;7.582;2023-07-13T19:42:47;5.13;;;4.82;;
23590;SDS011;11973;52.098;7.582;2023-07-13T19:45:15;4.85;;;4.63;;
23590;SDS011;11973;52.098;7.582;2023-07-13T19:47:43;5.30;;;5.00;;
23590;SDS011;11973;52.098;7.582;2023-07-13T19:50:10;4.93;;;4.82;;
23590;SDS011;11973;52.098;7.582;2023-07-13T19:52:41;4.97;;;4.80;;
23590;SDS011;11973;52.098;7.582;2023-07-13T19:55:13;5.43;;;5.32;;
23590;SDS011;11973;52.098;7.582;2023-07-13T19:57:42;5.07;;;4.78;;
23590;SDS011;11973;52.098;7.582;2023-07-13T20:00:12;5.30;;;5.20;;
23590;SDS011;11973;52.098;7.582;2023-07-13T20:03:09;5.70;;;5.28;;
23590;SDS011;11973;52.098;7.582;2023-07-13T20:05:35;5.28;;;5.18;;
23590;SDS011;11973;52.098;7.582;2023-07-13T20:08:05;5.05;;;4.95;;
23590;SDS011;11973;52.098;7.582;2023-07-13T20:10:41;5.47;;;5.22;;